logo
Rechercher aéroport 
image banner adimage banner adimage banner ad
image banner ad

SDZG - Pedro Teixeira Castelo Regional Tauá

Situé à Tauá, Brazil

ICAO - SDZG, IATA -

Données fournies par Airmate  

Information générale

Coordonnées: S5°55'60" W40°17'51"
Élévation : 1457 feet MSL.
Variation magnétique : -21.516666667° East
Voir autres Aéroports à Ceará

Données opérationnelles

Special qualification required
Heure actuelle UTC:
Heure actuelle locale:
Météo à : - ( 0 km )
METAR: PAMD 171636Z AUTO 27009G16KT 2 1/2SM -RA BR OVC003 09/09 A3011 RMK AO2 VIS 1V5 P0000
Voir NOTAMs / SUP AIP / TFR affectant cet aéroport [VIEW]
Fréquences de communication: [VIEW]

Pistes:

Identifiant RWYQFULongueur (ft)Largeur (ft)SurfaceLDA (ft)
094134197ASPH
274134197ASPH

Coordonnées de l'aéroport

Adresse: Tauá Brazil

Vue satellite de SDZG